Time;durP1;ratioP1;P1;durP2;ratioP2;P2;SDS_P1;SDS_P2;PMS_P1;PMS_P2;Temp;Humidity;BMP_temperature;BMP_pressure;BME280_temperature;BME280_humidity;BME280_pressure;Samples;Min_cycle;Max_cycle;Signal;HPM_P1;HPM_P2
2022/08/16 03:57:18;;;;;;;14.40;7.18;;;;;;;23.33;57.24;99655.12;5602745;31;200005;-55
2022/08/16 04:00:26;;;;;;;15.55;7.28;;;;;;;23.33;57.24;99655.12;5584072;31;33408;-55
2022/08/16 04:03:44;;;;;;;15.23;7.30;;;;;;;22.91;57.95;99673.63;5583982;31;32516;-55
2022/08/16 04:06:47;;;;;;;14.73;7.35;;;;;;;22.96;57.51;99670.53;5583828;31;34194;-55
2022/08/16 04:09:52;;;;;;;16.62;7.18;;;;;;;23.06;56.90;99679.97;5583387;31;33333;-55
2022/08/16 04:12:56;;;;;;;12.35;6.87;;;;;;;23.08;56.53;99671.38;5583197;31;33166;-57
2022/08/16 04:16:07;;;;;;;11.35;7.32;;;;;;;23.08;56.68;99674.94;5583261;31;34183;-56
2022/08/16 04:19:10;;;;;;;11.57;6.75;;;;;;;23.21;56.09;99676.19;5583777;31;33353;-55
2022/08/16 04:22:13;;;;;;;10.07;6.57;;;;;;;23.18;56.11;99668.72;5583786;32;33559;-56
2022/08/16 04:25:20;;;;;;;9.38;6.57;;;;;;;23.10;56.38;99675.31;5583834;31;34133;-56
2022/08/16 04:28:25;;;;;;;10.32;7.22;;;;;;;23.13;56.48;99666.34;5583196;31;33671;-55
2022/08/16 04:31:49;;;;;;;10.93;6.90;;;;;;;23.08;56.62;99671.38;5583775;31;33562;-55
2022/08/16 04:35:04;;;;;;;11.60;7.03;;;;;;;23.03;56.98;99666.28;5583006;31;34199;-56
2022/08/16 04:38:15;;;;;;;9.60;6.93;;;;;;;23.20;56.68;99662.88;5583199;31;34437;-56
2022/08/16 04:41:23;;;;;;;11.57;6.87;;;;;;;23.28;56.61;99669.97;5583454;31;33510;-56
2022/08/16 04:44:34;;;;;;;14.93;7.37;;;;;;;23.29;56.82;99666.06;5583664;32;33637;-56
2022/08/16 04:47:58;;;;;;;12.35;7.20;;;;;;;23.45;56.31;99663.00;5565430;31;34174;-56
2022/08/16 04:51:03;;;;;;;11.73;7.30;;;;;;;23.39;56.88;99667.28;5563769;32;34269;-56
2022/08/16 04:54:14;;;;;;;8.40;7.12;;;;;;;23.47;56.68;99674.31;5563961;32;34210;-57
2022/08/16 04:57:21;;;;;;;9.98;6.97;;;;;;;23.59;56.34;99674.00;5563680;32;33304;-56
2022/08/16 05:00:30;;;;;;;11.10;7.35;;;;;;;23.73;56.02;99673.28;5563758;32;34452;-56
2022/08/16 05:03:37;;;;;;;19.37;7.10;;;;;;;23.90;55.70;99666.28;5579467;31;33358;-56
2022/08/16 05:06:43;;;;;;;11.35;7.35;;;;;;;23.89;55.84;99667.47;5578686;31;33383;-55
2022/08/16 05:09:48;;;;;;;12.55;6.90;;;;;;;23.94;55.46;99674.50;5570160;31;33451;-56
2022/08/16 05:12:51;;;;;;;12.80;7.70;;;;;;;24.18;53.47;99678.50;5561370;31;34214;-56
2022/08/16 05:15:53;;;;;;;12.43;7.30;;;;;;;24.23;52.96;99686.31;5569794;31;34089;-56
2022/08/16 05:19:00;;;;;;;11.55;7.07;;;;;;;24.25;52.38;99687.47;5569911;32;33235;-55
2022/08/16 05:22:04;;;;;;;10.95;7.12;;;;;;;24.30;52.52;99684.34;5570004;31;33863;-56
2022/08/16 05:25:11;;;;;;;15.88;6.75;;;;;;;24.29;52.55;99687.50;5569706;32;33209;-56
2022/08/16 05:28:17;;;;;;;11.52;6.93;;;;;;;24.26;53.24;99696.47;5563544;31;34315;-55
2022/08/16 05:31:20;;;;;;;11.32;7.62;;;;;;;24.34;52.35;99690.63;5554417;32;33510;-56
2022/08/16 05:34:24;;;;;;;14.38;7.50;;;;;;;24.37;52.44;99702.75;5553599;31;34223;-56
2022/08/16 05:37:27;;;;;;;9.80;6.95;;;;;;;24.28;53.37;99697.66;5550007;32;34197;-56
2022/08/16 05:40:41;;;;;;;14.18;7.07;;;;;;;24.30;54.10;99700.00;5550180;32;34253;-57
2022/08/16 05:44:01;;;;;;;10.80;6.75;;;;;;;24.36;54.25;99693.75;5559864;32;33251;-56
2022/08/16 05:47:23;;;;;;;11.75;6.60;;;;;;;24.30;54.66;99697.25;5569368;31;33147;-56
2022/08/16 05:50:31;;;;;;;16.42;8.02;;;;;;;24.36;55.09;99692.97;5568854;31;34293;-56
2022/08/16 05:53:35;;;;;;;18.08;8.15;;;;;;;24.33;54.18;99694.53;5560752;31;33301;-57
2022/08/16 05:56:41;;;;;;;16.37;7.07;;;;;;;24.32;54.53;99687.50;5549072;32;33052;-57
2022/08/16 05:59:46;;;;;;;21.73;8.25;;;;;;;24.45;54.08;99681.66;5567711;32;33660;-56
2022/08/16 06:03:00;;;;;;;19.45;7.72;;;;;;;24.58;53.52;99682.84;5568106;32;34452;-56
2022/08/16 06:06:05;;;;;;;16.55;8.65;;;;;;;24.66;52.94;99694.56;5568792;32;34138;-56
2022/08/16 06:09:14;;;;;;;20.57;8.23;;;;;;;24.56;53.20;99690.66;5556685;32;33382;-56
2022/08/16 06:12:19;;;;;;;13.60;7.60;;;;;;;24.58;53.38;99700.06;5566431;31;33254;-56
2022/08/16 06:15:30;;;;;;;14.30;7.85;;;;;;;24.57;53.59;99694.97;5551195;32;33339;-55
2022/08/16 06:18:32;;;;;;;14.10;7.87;;;;;;;24.67;53.58;99707.09;5557397;32;33409;-56
2022/08/16 06:21:35;;;;;;;14.90;7.78;;;;;;;24.65;53.53;99704.75;5569076;32;33671;-56
2022/08/16 06:24:38;;;;;;;16.90;7.65;;;;;;;24.74;53.38;99696.94;5564687;31;33358;-56
2022/08/16 06:27:56;;;;;;;16.37;7.57;;;;;;;24.90;53.16;99699.28;5562684;32;33353;-56
2022/08/16 06:31:01;;;;;;;12.32;7.30;;;;;;;25.02;53.47;99689.84;5567941;32;33170;-56
2022/08/16 06:34:05;;;;;;;14.00;7.05;;;;;;;25.04;53.87;99692.97;5568136;32;33713;-56
2022/08/16 06:37:28;;;;;;;24.48;7.68;;;;;;;25.13;52.70;99695.31;5566245;32;34251;-56
2022/08/16 06:40:39;;;;;;;12.07;7.03;;;;;;;25.19;52.97;99694.53;5553095;31;33477;-56
2022/08/16 06:43:50;;;;;;;31.95;8.40;;;;;;;25.33;52.35;99690.97;5551591;32;33274;-56
2022/08/16 06:46:56;;;;;;;51.80;9.20;;;;;;;25.36;52.50;99692.12;5567963;31;33256;-56
2022/08/16 06:50:04;;;;;;;10.10;7.53;;;;;;;25.39;53.59;99691.34;5569091;31;34522;-56
2022/08/16 06:53:08;;;;;;;12.13;7.45;;;;;;;25.50;52.57;99700.31;5569059;31;34343;-56
2022/08/16 06:56:12;;;;;;;17.10;7.70;;;;;;;25.64;52.00;99685.75;5568573;31;33198;-56
2022/08/16 06:59:24;;;;;;;12.63;7.32;;;;;;;25.94;52.32;99693.47;5568642;31;33389;-56
2022/08/16 07:02:30;;;;;;;23.35;8.40;;;;;;;26.04;51.43;99686.38;5569136;32;33901;-56
2022/08/16 07:05:35;;;;;;;14.18;8.70;;;;;;;26.06;50.83;99693.03;5568616;32;33377;-56
2022/08/16 07:08:45;;;;;;;14.90;8.45;;;;;;;26.00;50.80;99698.16;5568960;31;33163;-56
2022/08/16 07:11:49;;;;;;;25.92;9.02;;;;;;;25.99;51.45;99702.09;5568022;32;33694;-56
2022/08/16 07:14:54;;;;;;;22.05;9.32;;;;;;;25.99;52.07;99710.31;5556713;32;33233;-56
2022/08/16 07:18:02;;;;;;;24.05;9.07;;;;;;;26.05;51.45;99702.44;5549078;32;34163;-56
2022/08/16 07:21:07;;;;;;;27.25;9.25;;;;;;;26.09;52.21;99702.41;5556167;32;33181;-56
2022/08/16 07:24:10;;;;;;;25.73;8.73;;;;;;;26.09;51.54;99703.19;5567994;31;33471;-56
2022/08/16 07:27:33;;;;;;;22.05;8.90;;;;;;;26.08;51.18;99704.37;5568784;31;33402;-56
2022/08/16 07:30:40;;;;;;;22.42;8.13;;;;;;;26.11;50.22;99700.06;5567439;31;33356;-56
2022/08/16 07:33:49;;;;;;;18.20;8.38;;;;;;;26.15;50.67;99692.56;5568637;31;32598;-56
2022/08/16 07:37:02;;;;;;;19.87;7.93;;;;;;;26.20;50.31;99700.38;5568399;31;33292;-55
2022/08/16 07:40:11;;;;;;;16.65;8.20;;;;;;;26.22;50.81;99711.75;5568311;31;33362;-56
2022/08/16 07:43:15;;;;;;;16.08;8.35;;;;;;;26.24;50.84;99723.91;5568181;31;32068;-56
2022/08/16 07:46:17;;;;;;;10.10;6.85;;;;;;;26.28;51.13;99729.38;5566107;32;34154;-56
2022/08/16 07:49:40;;;;;;;10.00;5.87;;;;;;;26.30;50.19;99721.50;5566440;32;34262;-56
2022/08/16 07:53:00;;;;;;;30.48;6.60;;;;;;;26.28;48.80;99725.84;5558408;32;33376;-57
2022/08/16 07:56:05;;;;;;;18.12;5.75;;;;;;;26.37;48.77;99726.97;5557014;32;33368;-56
2022/08/16 07:59:08;;;;;;;12.00;4.93;;;;;;;26.38;48.12;99717.53;5568137;32;33241;-57
2022/08/16 08:02:12;;;;;;;10.70;5.40;;;;;;;26.43;46.34;99713.56;5552008;32;33609;-57
2022/08/16 08:05:23;;;;;;;9.88;5.75;;;;;;;26.45;46.71;99722.19;5566127;32;33342;-57
2022/08/16 08:08:38;;;;;;;;;;;;;;;26.47;47.35;99725.31;5567900;31;33520;-56
2022/08/16 08:11:53;;;;;;;13.82;5.82;;;;;;;26.44;48.65;99723.38;5567994;32;34404;-56
2022/08/16 08:15:07;;;;;;;10.02;5.55;;;;;;;26.44;48.57;99726.91;5567342;31;33354;-56
2022/08/16 08:18:12;;;;;;;65.00;10.38;;;;;;;26.47;49.56;99731.63;5567614;31;33381;-57
2022/08/16 08:21:33;;;;;;;29.73;7.30;;;;;;;26.40;50.15;99737.16;5567769;31;33296;-56
2022/08/16 08:24:56;;;;;;;13.30;6.20;;;;;;;26.41;49.54;99733.19;5567536;31;33087;-56
2022/08/16 08:28:05;;;;;;;11.55;6.03;;;;;;;26.47;49.30;99734.37;5548086;32;34662;-56
2022/08/16 08:31:13;;;;;;;10.88;5.82;;;;;;;26.56;49.66;99725.69;5548007;32;34236;-56
2022/08/16 08:34:20;;;;;;;17.02;5.80;;;;;;;26.60;48.83;99731.94;5548392;32;33299;-57
2022/08/16 08:37:24;;;;;;;10.18;5.85;;;;;;;26.70;49.17;99736.56;5560886;32;33420;-56
2022/08/16 08:40:28;;;;;;;10.40;5.82;;;;;;;26.82;48.73;99728.97;5567831;32;33706;-56
2022/08/16 08:43:31;;;;;;;18.77;6.18;;;;;;;26.88;47.97;99732.88;5568467;31;34061;-57
2022/08/16 08:46:43;;;;;;;9.38;5.00;;;;;;;26.96;47.61;99731.63;5557061;32;33398;-57
2022/08/16 08:50:06;;;;;;;12.13;5.12;;;;;;;27.15;45.70;99738.53;5568954;31;33344;-56
2022/08/16 08:53:11;;;;;;;8.75;5.12;;;;;;;27.24;44.85;99738.84;5550483;32;33667;-57
2022/08/16 08:56:16;;;;;;;7.78;4.70;;;;;;;27.30;44.12;99741.94;5550341;32;33421;-56
2022/08/16 08:59:27;;;;;;;9.85;5.18;;;;;;;27.40;44.43;99732.78;5550268;32;34319;-56
2022/08/16 09:02:30;;;;;;;7.78;5.20;;;;;;;27.53;44.03;99725.53;5565770;32;33746;-56
2022/08/16 09:05:36;;;;;;;17.50;5.12;;;;;;;27.62;43.40;99723.09;5569629;31;33310;-56
2022/08/16 09:08:42;;;;;;;7.90;4.90;;;;;;;27.71;44.16;99721.78;5560153;31;33237;-57
2022/08/16 09:11:49;;;;;;;10.00;5.95;;;;;;;27.77;43.22;99726.47;5565091;32;33643;-56
2022/08/16 09:15:12;;;;;;;11.38;5.80;;;;;;;27.91;45.28;99732.97;5567311;32;34377;-56
2022/08/16 09:18:16;;;;;;;12.10;5.70;;;;;;;27.93;44.11;99725.88;5553252;32;34333;-56
2022/08/16 09:21:28;;;;;;;12.60;5.10;;;;;;;28.00;44.44;99725.75;5564702;32;33298;-56
2022/08/16 09:24:33;;;;;;;14.52;5.25;;;;;;;28.04;43.60;99712.72;5566977;32;33362;-57
2022/08/16 09:27:55;;;;;;;10.93;5.47;;;;;;;28.16;43.16;99713.34;5568684;31;33259;-56
2022/08/16 09:30:59;;;;;;;8.10;4.82;;;;;;;28.20;42.87;99708.56;5566883;31;33280;-57
2022/08/16 09:34:02;;;;;;;12.65;4.97;;;;;;;28.25;42.21;99703.37;5569158;32;33612;-57
2022/08/16 09:37:06;;;;;;;6.43;4.43;;;;;;;28.34;42.44;99703.63;5562829;32;34096;-56
2022/08/16 09:40:21;;;;;;;11.75;4.90;;;;;;;28.37;41.92;99692.94;5567607;32;34563;-57
2022/08/16 09:43:34;;;;;;;11.75;4.75;;;;;;;28.49;41.77;99693.16;5562810;32;33181;-57
2022/08/16 09:46:57;;;;;;;7.70;4.25;;;;;;;28.53;41.14;99691.13;5566525;31;33470;-57
2022/08/16 09:50:00;;;;;;;6.32;4.40;;;;;;;28.62;41.21;99696.13;5558903;32;33752;-56
2022/08/16 09:53:05;;;;;;;7.22;5.10;;;;;;;28.70;39.77;99691.25;5557362;32;33682;-57
2022/08/16 09:56:19;;;;;;;8.25;4.68;;;;;;;28.75;39.82;99690.78;5549868;32;34356;-57
2022/08/16 09:59:27;;;;;;;8.70;4.53;;;;;;;28.75;39.86;99688.81;5557844;32;33492;-57
2022/08/16 10:02:32;;;;;;;8.32;4.22;;;;;;;28.83;39.23;99686.69;5564201;32;33741;-57
2022/08/16 10:05:36;;;;;;;13.68;4.50;;;;;;;28.89;38.46;99673.19;5569312;32;33257;-57
2022/08/16 10:08:38;;;;;;;7.65;4.45;;;;;;;28.93;38.42;99676.66;5567168;32;33303;-57
2022/08/16 10:15:21;;;;;;;6.75;4.20;;;;;;;29.16;37.65;99676.66;5555050;32;33597;-57
2022/08/16 10:18:28;;;;;;;6.75;4.30;;;;;;;29.21;36.71;99669.88;5565100;32;33763;-57
2022/08/16 10:21:50;;;;;;;11.60;5.12;;;;;;;29.22;36.94;99674.19;5560650;32;34376;-56
2022/08/16 10:24:57;;;;;;;9.77;4.70;;;;;;;29.40;37.63;99665.53;5567668;32;33086;-57
2022/08/16 10:28:01;;;;;;;9.50;5.00;;;;;;;29.42;37.37;99665.87;5565697;31;33231;-57
2022/08/16 10:31:24;;;;;;;7.40;4.60;;;;;;;29.36;37.40;99676.66;5567553;31;34402;-57
2022/08/16 10:34:45;;;;;;;6.35;5.07;;;;;;;29.47;37.09;99665.37;5566901;32;34341;-57
2022/08/16 10:37:52;;;;;;;7.82;5.30;;;;;;;29.61;36.88;99664.34;5561949;32;33751;-56
2022/08/16 10:40:54;;;;;;;7.82;4.50;;;;;;;29.68;36.33;99669.72;5560784;32;34338;-57
2022/08/16 10:43:58;;;;;;;6.45;4.40;;;;;;;29.76;36.34;99676.62;5565562;32;33616;-57
2022/08/16 10:47:00;;;;;;;7.12;5.10;;;;;;;29.75;35.26;99668.78;5559102;32;34334;-57
2022/08/16 10:50:05;;;;;;;7.35;4.80;;;;;;;29.87;34.34;99659.84;5556390;32;34363;-57
2022/08/16 10:53:20;;;;;;;8.50;4.55;;;;;;;30.00;34.22;99660.72;5566292;32;34287;-57
2022/08/16 10:56:24;;;;;;;7.80;4.90;;;;;;;30.11;34.32;99658.47;5566658;32;33657;-57
2022/08/16 10:59:46;;;;;;;5.47;4.68;;;;;;;30.13;33.90;99658.03;5568576;32;34343;-57
2022/08/16 11:03:03;;;;;;;5.97;4.55;;;;;;;30.25;34.21;99654.62;5559916;32;34498;-57
2022/08/16 11:06:07;;;;;;;9.75;4.80;;;;;;;30.14;33.68;99648.53;5555975;32;33718;-57
2022/08/16 11:09:13;;;;;;;6.47;5.07;;;;;;;30.19;33.15;99642.50;5563213;32;33613;-58
2022/08/16 11:12:27;;;;;;;7.68;4.78;;;;;;;30.13;33.58;99646.97;5562884;32;34444;-56
2022/08/16 11:15:30;;;;;;;6.47;5.03;;;;;;;30.20;33.32;99644.09;5568035;32;33760;-57
2022/08/16 11:18:35;;;;;;;5.72;4.60;;;;;;;30.02;33.73;99647.22;5562436;32;34261;-57
2022/08/16 11:21:58;;;;;;;6.53;4.40;;;;;;;29.98;33.27;99648.53;5558035;32;33652;-58
2022/08/16 11:25:23;;;;;;;8.88;4.62;;;;;;;29.84;33.54;99655.16;5567128;32;34391;-57
2022/08/16 11:28:47;;;;;;;12.85;5.07;;;;;;;29.84;34.75;99663.47;5555546;32;34411;-57
2022/08/16 11:32:09;;;;;;;13.10;5.23;;;;;;;29.73;34.90;99669.19;5566872;32;33710;-58
2022/08/16 11:35:17;;;;;;;134.20;11.07;;;;;;;29.72;35.20;99684.22;5559929;32;34274;-57
2022/08/16 11:38:40;;;;;;;13.15;5.12;;;;;;;29.60;44.00;99680.13;5563660;32;34061;-57
2022/08/16 11:41:59;;;;;;;8.43;3.80;;;;;;;28.46;46.83;99723.56;5566307;32;34332;-57
2022/08/16 11:45:03;;;;;;;27.80;5.45;;;;;;;27.44;49.45;99735.47;5566426;32;34289;-57
2022/08/16 11:48:08;;;;;;;17.50;5.50;;;;;;;26.84;52.89;99738.41;5555728;32;33615;-57
2022/08/16 11:51:11;;;;;;;14.60;5.82;;;;;;;26.24;59.13;99748.63;5568436;32;33700;-57
2022/08/16 11:54:14;;;;;;;12.02;5.35;;;;;;;25.82;61.79;99746.88;5558218;32;33647;-56
2022/08/16 11:57:23;;;;;;;12.05;5.75;;;;;;;25.81;63.12;99739.06;5566881;32;34348;-57
2022/08/16 12:00:28;;;;;;;10.90;5.55;;;;;;;25.59;66.82;99739.09;5568420;32;33716;-56
2022/08/16 12:03:51;;;;;;;10.80;5.93;;;;;;;25.57;66.72;99727.75;5557248;32;33708;-56
2022/08/16 12:06:53;;;;;;;8.07;5.00;;;;;;;25.47;69.48;99720.34;5561529;32;33879;-57
2022/08/16 12:09:56;;;;;;;7.72;5.25;;;;;;;25.34;67.73;99710.97;5565920;32;33718;-57
2022/08/16 12:12:58;;;;;;;6.60;4.97;;;;;;;25.53;64.91;99699.53;5568331;32;33714;-56
2022/08/16 12:16:07;;;;;;;8.98;5.45;;;;;;;25.44;70.68;99696.44;5566460;32;34460;-56
2022/08/16 12:19:11;;;;;;;10.10;5.30;;;;;;;25.25;73.47;99692.16;5556902;32;33653;-57
2022/08/16 12:22:15;;;;;;;8.43;5.72;;;;;;;25.13;75.75;99692.59;5568078;32;33656;-56
2022/08/16 12:25:23;;;;;;;8.55;5.72;;;;;;;24.97;77.46;99682.03;5570217;32;33742;-56
2022/08/16 12:28:25;;;;;;;7.93;6.00;;;;;;;25.09;80.53;99679.63;5568682;31;34459;-57
2022/08/16 12:31:49;;;;;;;11.20;6.90;;;;;;;25.43;82.08;99687.41;5569802;32;33757;-56
2022/08/16 12:35:05;;;;;;;;;;;;;;;25.61;84.20;99679.09;5570799;32;33764;-57
2022/08/16 12:38:09;;;;;;;6.90;5.12;;;;;;;25.75;81.75;99686.47;5566074;32;34580;-57
2022/08/16 12:41:33;;;;;;;7.15;5.43;;;;;;;25.99;66.53;99687.56;5564703;32;33324;-57
2022/08/16 12:44:36;;;;;;;10.77;5.35;;;;;;;26.25;67.23;99694.44;5566531;32;33880;-56
2022/08/16 12:51:28;;;;;;;11.73;5.25;;;;;;;26.60;66.22;99687.94;5569911;32;34476;-56
2022/08/16 12:54:50;;;;;;;5.82;4.75;;;;;;;26.70;70.45;99689.03;5564823;32;34413;-57
2022/08/16 12:57:57;;;;;;;7.05;4.10;;;;;;;26.59;60.66;99691.88;5567790;32;33614;-58
2022/08/16 13:01:03;;;;;;;4.30;3.78;;;;;;;26.85;51.93;99684.94;5567676;32;33851;-56
2022/08/16 13:04:06;;;;;;;5.25;3.87;;;;;;;26.84;52.88;99686.16;5569358;32;34210;-58
2022/08/16 13:07:22;;;;;;;5.57;4.32;;;;;;;26.84;53.80;99683.41;5570248;32;33779;-56
2022/08/16 13:10:28;;;;;;;5.85;4.70;;;;;;;26.91;53.58;99677.81;5568169;32;34243;-56
2022/08/16 13:13:40;;;;;;;6.97;4.75;;;;;;;26.83;58.03;99670.06;5567267;32;33693;-57
2022/08/16 13:16:42;;;;;;;7.00;4.80;;;;;;;26.80;52.89;99665.37;5567037;32;33646;-56
2022/08/16 13:19:48;;;;;;;6.50;4.53;;;;;;;26.90;49.34;99657.03;5568475;32;33941;-56
2022/08/16 13:23:10;;;;;;;7.93;4.72;;;;;;;27.32;48.08;99640.50;5570106;32;34205;-57
2022/08/16 13:26:14;;;;;;;7.18;4.65;;;;;;;27.61;46.90;99643.63;5567517;32;33428;-57
2022/08/16 13:29:18;;;;;;;5.25;4.75;;;;;;;27.77;47.08;99648.56;5569527;32;33970;-56
2022/08/16 13:32:23;;;;;;;7.03;4.75;;;;;;;27.84;48.85;99649.25;5569918;32;33693;-56
2022/08/16 13:35:44;;;;;;;8.75;5.25;;;;;;;28.03;47.92;99655.28;5569183;32;34377;-57
2022/08/16 13:38:46;;;;;;;6.85;5.22;;;;;;;28.29;46.29;99646.22;5568380;31;34421;-57
2022/08/16 13:41:50;;;;;;;7.53;4.97;;;;;;;28.48;47.15;99643.97;5569023;32;34323;-56
2022/08/16 13:44:56;;;;;;;5.57;4.97;;;;;;;28.71;41.92;99645.91;5568988;32;33714;-57
2022/08/16 13:48:00;;;;;;;7.22;4.78;;;;;;;28.90;43.86;99647.16;5569270;31;34252;-56
2022/08/16 13:51:06;;;;;;;5.90;4.60;;;;;;;28.94;45.39;99650.63;5567514;32;33664;-57
2022/08/16 13:54:08;;;;;;;10.30;5.00;;;;;;;29.03;45.04;99651.66;5568717;32;33673;-57
2022/08/16 13:57:10;;;;;;;5.05;4.28;;;;;;;29.07;45.88;99650.81;5569929;32;33732;-57
2022/08/16 14:00:15;;;;;;;5.78;4.30;;;;;;;29.11;44.83;99649.56;5569882;32;33669;-57
2022/08/16 14:09:36;;;;;;;6.80;4.45;;;;;;;29.91;41.00;99614.31;5605022;31;119946;-58
2022/08/16 14:12:39;;;;;;;9.07;4.37;;;;;;;29.91;41.00;99614.31;5583731;31;33733;-57
2022/08/16 14:15:41;;;;;;;7.70;4.57;;;;;;;29.62;40.91;99621.72;5584088;31;33621;-57
2022/08/16 14:18:43;;;;;;;5.25;4.75;;;;;;;29.73;39.50;99617.50;5583969;31;33558;-57
